sensor_id;sensor_type;location;lat;lon;timestamp;P1;durP1;ratioP1;P2;durP2;ratioP2
7941;SDS011;4016;50.758;7.150;2023-09-07T00:03:46;6.13;;;5.53;;
7941;SDS011;4016;50.758;7.150;2023-09-07T00:08:46;6.17;;;5.30;;
7941;SDS011;4016;50.758;7.150;2023-09-07T00:13:46;6.83;;;5.67;;
7941;SDS011;4016;50.758;7.150;2023-09-07T00:18:47;5.57;;;5.07;;
7941;SDS011;4016;50.758;7.150;2023-09-07T00:23:48;6.30;;;5.27;;
7941;SDS011;4016;50.758;7.150;2023-09-07T00:28:48;5.73;;;5.23;;
7941;SDS011;4016;50.758;7.150;2023-09-07T00:33:48;6.27;;;5.60;;
7941;SDS011;4016;50.758;7.150;2023-09-07T00:38:49;6.00;;;5.40;;
7941;SDS011;4016;50.758;7.150;2023-09-07T00:43:49;5.80;;;5.20;;
7941;SDS011;4016;50.758;7.150;2023-09-07T00:48:50;5.73;;;5.17;;
7941;SDS011;4016;50.758;7.150;2023-09-07T00:53:50;6.07;;;5.47;;
7941;SDS011;4016;50.758;7.150;2023-09-07T00:58:50;6.00;;;5.40;;
7941;SDS011;4016;50.758;7.150;2023-09-07T01:03:52;7.13;;;5.53;;
7941;SDS011;4016;50.758;7.150;2023-09-07T01:08:54;6.77;;;5.50;;
7941;SDS011;4016;50.758;7.150;2023-09-07T01:13:58;6.37;;;5.63;;
7941;SDS011;4016;50.758;7.150;2023-09-07T01:18:58;5.53;;;5.00;;
7941;SDS011;4016;50.758;7.150;2023-09-07T01:24:00;5.77;;;5.10;;
7941;SDS011;4016;50.758;7.150;2023-09-07T01:29:01;6.10;;;5.30;;
7941;SDS011;4016;50.758;7.150;2023-09-07T01:34:02;6.70;;;5.40;;
7941;SDS011;4016;50.758;7.150;2023-09-07T01:39:03;6.37;;;5.57;;
7941;SDS011;4016;50.758;7.150;2023-09-07T01:44:07;5.97;;;5.37;;
7941;SDS011;4016;50.758;7.150;2023-09-07T01:49:07;5.77;;;5.17;;
7941;SDS011;4016;50.758;7.150;2023-09-07T01:54:08;6.43;;;5.37;;
7941;SDS011;4016;50.758;7.150;2023-09-07T01:59:10;5.40;;;4.90;;
7941;SDS011;4016;50.758;7.150;2023-09-07T02:04:10;5.83;;;5.23;;
7941;SDS011;4016;50.758;7.150;2023-09-07T02:09:11;5.77;;;5.13;;
7941;SDS011;4016;50.758;7.150;2023-09-07T02:14:11;6.83;;;5.27;;
7941;SDS011;4016;50.758;7.150;2023-09-07T02:19:12;6.30;;;5.50;;
7941;SDS011;4016;50.758;7.150;2023-09-07T02:24:12;6.37;;;5.27;;
7941;SDS011;4016;50.758;7.150;2023-09-07T02:29:13;5.93;;;5.20;;
7941;SDS011;4016;50.758;7.150;2023-09-07T02:34:13;5.63;;;5.07;;
7941;SDS011;4016;50.758;7.150;2023-09-07T02:39:14;6.27;;;5.00;;
7941;SDS011;4016;50.758;7.150;2023-09-07T02:44:14;6.03;;;5.43;;
7941;SDS011;4016;50.758;7.150;2023-09-07T02:49:14;5.47;;;4.97;;
7941;SDS011;4016;50.758;7.150;2023-09-07T02:54:15;5.80;;;5.10;;
7941;SDS011;4016;50.758;7.150;2023-09-07T02:59:15;5.77;;;5.00;;
7941;SDS011;4016;50.758;7.150;2023-09-07T03:04:16;7.03;;;6.17;;
7941;SDS011;4016;50.758;7.150;2023-09-07T03:09:16;5.57;;;5.00;;
7941;SDS011;4016;50.758;7.150;2023-09-07T03:14:17;6.77;;;5.63;;
7941;SDS011;4016;50.758;7.150;2023-09-07T03:19:17;5.83;;;5.23;;
7941;SDS011;4016;50.758;7.150;2023-09-07T03:24:18;5.73;;;5.20;;
7941;SDS011;4016;50.758;7.150;2023-09-07T03:29:18;5.87;;;4.97;;
7941;SDS011;4016;50.758;7.150;2023-09-07T03:34:18;6.37;;;5.27;;
7941;SDS011;4016;50.758;7.150;2023-09-07T03:39:19;5.80;;;5.23;;
7941;SDS011;4016;50.758;7.150;2023-09-07T03:44:22;6.13;;;5.13;;
7941;SDS011;4016;50.758;7.150;2023-09-07T03:49:22;5.37;;;4.83;;
7941;SDS011;4016;50.758;7.150;2023-09-07T03:54:23;5.60;;;5.00;;
7941;SDS011;4016;50.758;7.150;2023-09-07T03:59:23;5.70;;;5.10;;
7941;SDS011;4016;50.758;7.150;2023-09-07T04:04:23;5.60;;;5.00;;
7941;SDS011;4016;50.758;7.150;2023-09-07T04:09:24;6.10;;;5.17;;
7941;SDS011;4016;50.758;7.150;2023-09-07T04:14:24;5.93;;;5.33;;
7941;SDS011;4016;50.758;7.150;2023-09-07T04:19:25;6.33;;;5.33;;
7941;SDS011;4016;50.758;7.150;2023-09-07T04:24:25;5.83;;;5.23;;
7941;SDS011;4016;50.758;7.150;2023-09-07T04:29:27;6.00;;;5.40;;
7941;SDS011;4016;50.758;7.150;2023-09-07T04:34:28;6.67;;;5.40;;
7941;SDS011;4016;50.758;7.150;2023-09-07T04:39:28;6.60;;;5.70;;
7941;SDS011;4016;50.758;7.150;2023-09-07T04:44:29;6.10;;;5.60;;
7941;SDS011;4016;50.758;7.150;2023-09-07T04:49:29;6.23;;;5.50;;
7941;SDS011;4016;50.758;7.150;2023-09-07T04:54:29;5.83;;;5.20;;
7941;SDS011;4016;50.758;7.150;2023-09-07T04:59:30;6.20;;;5.60;;
7941;SDS011;4016;50.758;7.150;2023-09-07T05:04:30;5.80;;;5.20;;
7941;SDS011;4016;50.758;7.150;2023-09-07T05:09:30;7.17;;;5.70;;
7941;SDS011;4016;50.758;7.150;2023-09-07T05:14:31;8.50;;;5.93;;
7941;SDS011;4016;50.758;7.150;2023-09-07T05:19:32;6.17;;;5.57;;
7941;SDS011;4016;50.758;7.150;2023-09-07T05:24:32;6.13;;;5.53;;
7941;SDS011;4016;50.758;7.150;2023-09-07T05:29:32;6.70;;;6.00;;
7941;SDS011;4016;50.758;7.150;2023-09-07T05:34:33;9.63;;;6.27;;
7941;SDS011;4016;50.758;7.150;2023-09-07T05:39:33;6.77;;;5.90;;
7941;SDS011;4016;50.758;7.150;2023-09-07T05:44:33;8.70;;;6.57;;
7941;SDS011;4016;50.758;7.150;2023-09-07T05:49:34;6.73;;;6.07;;
7941;SDS011;4016;50.758;7.150;2023-09-07T05:54:34;6.23;;;5.63;;
7941;SDS011;4016;50.758;7.150;2023-09-07T05:59:35;6.03;;;5.43;;
7941;SDS011;4016;50.758;7.150;2023-09-07T06:04:35;5.83;;;5.33;;
7941;SDS011;4016;50.758;7.150;2023-09-07T06:09:36;6.20;;;5.60;;
7941;SDS011;4016;50.758;7.150;2023-09-07T06:14:37;6.80;;;6.13;;
7941;SDS011;4016;50.758;7.150;2023-09-07T06:19:38;6.93;;;6.23;;
7941;SDS011;4016;50.758;7.150;2023-09-07T06:24:39;6.70;;;5.90;;
7941;SDS011;4016;50.758;7.150;2023-09-07T06:29:40;7.10;;;6.40;;
7941;SDS011;4016;50.758;7.150;2023-09-07T06:34:40;6.97;;;5.97;;
7941;SDS011;4016;50.758;7.150;2023-09-07T06:39:41;6.93;;;5.93;;
7941;SDS011;4016;50.758;7.150;2023-09-07T06:44:44;6.53;;;5.83;;
7941;SDS011;4016;50.758;7.150;2023-09-07T06:49:45;6.57;;;5.87;;
7941;SDS011;4016;50.758;7.150;2023-09-07T06:54:45;6.57;;;5.80;;
7941;SDS011;4016;50.758;7.150;2023-09-07T06:59:45;6.27;;;5.67;;
7941;SDS011;4016;50.758;7.150;2023-09-07T07:04:46;5.97;;;5.43;;
7941;SDS011;4016;50.758;7.150;2023-09-07T07:09:46;4.90;;;4.50;;
7941;SDS011;4016;50.758;7.150;2023-09-07T07:14:47;5.25;;;4.75;;
7941;SDS011;4016;50.758;7.150;2023-09-07T07:19:47;5.10;;;4.70;;
7941;SDS011;4016;50.758;7.150;2023-09-07T07:24:47;6.97;;;5.35;;
7941;SDS011;4016;50.758;7.150;2023-09-07T07:29:48;5.20;;;4.70;;
7941;SDS011;4016;50.758;7.150;2023-09-07T07:34:48;5.00;;;4.57;;
7941;SDS011;4016;50.758;7.150;2023-09-07T07:39:49;5.53;;;4.57;;
7941;SDS011;4016;50.758;7.150;2023-09-07T07:44:49;5.35;;;4.82;;
7941;SDS011;4016;50.758;7.150;2023-09-07T07:49:50;6.30;;;5.05;;
7941;SDS011;4016;50.758;7.150;2023-09-07T07:54:50;5.28;;;4.68;;
7941;SDS011;4016;50.758;7.150;2023-09-07T07:59:51;6.45;;;4.95;;
7941;SDS011;4016;50.758;7.150;2023-09-07T08:04:51;6.32;;;5.00;;
7941;SDS011;4016;50.758;7.150;2023-09-07T08:09:51;5.55;;;4.95;;
7941;SDS011;4016;50.758;7.150;2023-09-07T08:14:52;4.75;;;4.28;;
7941;SDS011;4016;50.758;7.150;2023-09-07T08:19:52;5.30;;;4.65;;
7941;SDS011;4016;50.758;7.150;2023-09-07T08:24:56;6.18;;;5.00;;
7941;SDS011;4016;50.758;7.150;2023-09-07T08:29:57;5.85;;;5.25;;
7941;SDS011;4016;50.758;7.150;2023-09-07T08:34:57;5.60;;;5.00;;
7941;SDS011;4016;50.758;7.150;2023-09-07T08:40:00;4.97;;;4.57;;
7941;SDS011;4016;50.758;7.150;2023-09-07T08:45:03;6.60;;;4.80;;
7941;SDS011;4016;50.758;7.150;2023-09-07T08:50:06;6.60;;;4.70;;
7941;SDS011;4016;50.758;7.150;2023-09-07T08:55:07;6.75;;;4.78;;
7941;SDS011;4016;50.758;7.150;2023-09-07T09:00:11;5.32;;;4.82;;
7941;SDS011;4016;50.758;7.150;2023-09-07T09:05:16;5.05;;;4.65;;
7941;SDS011;4016;50.758;7.150;2023-09-07T09:10:19;5.07;;;4.57;;
7941;SDS011;4016;50.758;7.150;2023-09-07T09:15:21;5.15;;;4.65;;
7941;SDS011;4016;50.758;7.150;2023-09-07T09:20:25;4.70;;;4.30;;
7941;SDS011;4016;50.758;7.150;2023-09-07T09:25:28;5.10;;;4.60;;
7941;SDS011;4016;50.758;7.150;2023-09-07T09:30:29;5.63;;;4.70;;
7941;SDS011;4016;50.758;7.150;2023-09-07T09:35:29;7.10;;;4.75;;
7941;SDS011;4016;50.758;7.150;2023-09-07T09:40:33;5.18;;;4.68;;
7941;SDS011;4016;50.758;7.150;2023-09-07T09:45:37;6.90;;;4.45;;
7941;SDS011;4016;50.758;7.150;2023-09-07T09:50:38;4.97;;;4.57;;
7941;SDS011;4016;50.758;7.150;2023-09-07T09:55:40;4.97;;;4.57;;
7941;SDS011;4016;50.758;7.150;2023-09-07T10:00:44;6.88;;;4.80;;
7941;SDS011;4016;50.758;7.150;2023-09-07T10:05:47;4.55;;;4.15;;
7941;SDS011;4016;50.758;7.150;2023-09-07T10:10:49;5.17;;;4.50;;
7941;SDS011;4016;50.758;7.150;2023-09-07T10:21:09;5.25;;;4.75;;
7941;SDS011;4016;50.758;7.150;2023-09-07T10:26:11;5.38;;;4.88;;
7941;SDS011;4016;50.758;7.150;2023-09-07T10:31:15;6.25;;;4.68;;
7941;SDS011;4016;50.758;7.150;2023-09-07T10:36:22;5.22;;;4.72;;
7941;SDS011;4016;50.758;7.150;2023-09-07T10:41:24;5.00;;;4.50;;
7941;SDS011;4016;50.758;7.150;2023-09-07T10:46:24;5.67;;;4.67;;
7941;SDS011;4016;50.758;7.150;2023-09-07T10:51:26;8.48;;;5.30;;
7941;SDS011;4016;50.758;7.150;2023-09-07T10:56:26;5.00;;;4.47;;
7941;SDS011;4016;50.758;7.150;2023-09-07T11:01:26;5.20;;;4.70;;
7941;SDS011;4016;50.758;7.150;2023-09-07T11:06:27;6.40;;;5.22;;
7941;SDS011;4016;50.758;7.150;2023-09-07T11:11:27;5.22;;;4.72;;
7941;SDS011;4016;50.758;7.150;2023-09-07T11:16:28;5.00;;;4.60;;
7941;SDS011;4016;50.758;7.150;2023-09-07T11:21:29;5.10;;;4.60;;
7941;SDS011;4016;50.758;7.150;2023-09-07T11:26:43;4.80;;;4.30;;
7941;SDS011;4016;50.758;7.150;2023-09-07T11:31:45;5.00;;;4.60;;
7941;SDS011;4016;50.758;7.150;2023-09-07T11:36:45;4.70;;;4.30;;
7941;SDS011;4016;50.758;7.150;2023-09-07T11:41:46;5.43;;;4.93;;
7941;SDS011;4016;50.758;7.150;2023-09-07T11:46:47;5.70;;;4.80;;
7941;SDS011;4016;50.758;7.150;2023-09-07T11:51:47;4.90;;;4.50;;
7941;SDS011;4016;50.758;7.150;2023-09-07T11:56:47;4.63;;;4.22;;
7941;SDS011;4016;50.758;7.150;2023-09-07T12:01:48;6.93;;;5.00;;
7941;SDS011;4016;50.758;7.150;2023-09-07T12:06:48;5.10;;;4.60;;
7941;SDS011;4016;50.758;7.150;2023-09-07T12:11:49;5.03;;;4.60;;
7941;SDS011;4016;50.758;7.150;2023-09-07T12:16:49;4.75;;;4.35;;
7941;SDS011;4016;50.758;7.150;2023-09-07T12:21:51;5.88;;;4.20;;
7941;SDS011;4016;50.758;7.150;2023-09-07T12:26:51;4.50;;;4.10;;
7941;SDS011;4016;50.758;7.150;2023-09-07T12:31:52;5.10;;;4.60;;
7941;SDS011;4016;50.758;7.150;2023-09-07T12:36:52;4.93;;;4.43;;
7941;SDS011;4016;50.758;7.150;2023-09-07T12:41:52;5.20;;;4.70;;
7941;SDS011;4016;50.758;7.150;2023-09-07T12:46:53;5.13;;;4.63;;
7941;SDS011;4016;50.758;7.150;2023-09-07T12:51:53;5.03;;;4.53;;
7941;SDS011;4016;50.758;7.150;2023-09-07T12:56:53;7.43;;;4.60;;
7941;SDS011;4016;50.758;7.150;2023-09-07T13:01:54;5.05;;;4.55;;
7941;SDS011;4016;50.758;7.150;2023-09-07T13:06:55;5.22;;;4.70;;
7941;SDS011;4016;50.758;7.150;2023-09-07T13:11:56;5.43;;;4.65;;
7941;SDS011;4016;50.758;7.150;2023-09-07T13:16:56;5.50;;;4.45;;
7941;SDS011;4016;50.758;7.150;2023-09-07T13:21:57;5.53;;;4.93;;
7941;SDS011;4016;50.758;7.150;2023-09-07T13:26:57;5.97;;;4.60;;
7941;SDS011;4016;50.758;7.150;2023-09-07T13:31:57;5.40;;;4.90;;
7941;SDS011;4016;50.758;7.150;2023-09-07T13:36:58;6.20;;;4.70;;
7941;SDS011;4016;50.758;7.150;2023-09-07T13:41:59;4.87;;;4.47;;
7941;SDS011;4016;50.758;7.150;2023-09-07T13:46:59;5.00;;;4.50;;
7941;SDS011;4016;50.758;7.150;2023-09-07T13:52:00;6.93;;;4.60;;
7941;SDS011;4016;50.758;7.150;2023-09-07T13:57:00;4.90;;;4.50;;
7941;SDS011;4016;50.758;7.150;2023-09-07T14:02:00;4.57;;;4.17;;
7941;SDS011;4016;50.758;7.150;2023-09-07T14:07:01;4.90;;;4.50;;
7941;SDS011;4016;50.758;7.150;2023-09-07T14:12:01;5.33;;;4.90;;
7941;SDS011;4016;50.758;7.150;2023-09-07T14:17:02;4.85;;;4.45;;
7941;SDS011;4016;50.758;7.150;2023-09-07T14:22:03;5.22;;;4.55;;
7941;SDS011;4016;50.758;7.150;2023-09-07T14:27:03;5.38;;;4.80;;
7941;SDS011;4016;50.758;7.150;2023-09-07T14:32:04;5.10;;;4.60;;
7941;SDS011;4016;50.758;7.150;2023-09-07T14:37:04;6.28;;;4.80;;
7941;SDS011;4016;50.758;7.150;2023-09-07T14:42:05;6.07;;;4.57;;
7941;SDS011;4016;50.758;7.150;2023-09-07T14:47:11;5.32;;;4.82;;
7941;SDS011;4016;50.758;7.150;2023-09-07T14:52:11;5.40;;;4.72;;
7941;SDS011;4016;50.758;7.150;2023-09-07T14:57:12;5.15;;;4.47;;
7941;SDS011;4016;50.758;7.150;2023-09-07T15:02:12;5.83;;;4.40;;
7941;SDS011;4016;50.758;7.150;2023-09-07T15:07:12;5.37;;;4.87;;
7941;SDS011;4016;50.758;7.150;2023-09-07T15:12:13;5.15;;;4.65;;
7941;SDS011;4016;50.758;7.150;2023-09-07T15:17:14;5.00;;;4.60;;
7941;SDS011;4016;50.758;7.150;2023-09-07T15:22:15;5.03;;;4.53;;
7941;SDS011;4016;50.758;7.150;2023-09-07T15:27:15;5.53;;;4.60;;
7941;SDS011;4016;50.758;7.150;2023-09-07T15:32:15;5.57;;;4.63;;
7941;SDS011;4016;50.758;7.150;2023-09-07T15:37:16;4.80;;;4.40;;
7941;SDS011;4016;50.758;7.150;2023-09-07T15:42:16;5.10;;;4.53;;
7941;SDS011;4016;50.758;7.150;2023-09-07T15:47:16;5.00;;;4.60;;
7941;SDS011;4016;50.758;7.150;2023-09-07T15:52:17;4.95;;;4.25;;
7941;SDS011;4016;50.758;7.150;2023-09-07T15:57:18;4.90;;;4.50;;
7941;SDS011;4016;50.758;7.150;2023-09-07T16:02:19;4.53;;;4.13;;
7941;SDS011;4016;50.758;7.150;2023-09-07T16:07:19;4.70;;;4.30;;
7941;SDS011;4016;50.758;7.150;2023-09-07T16:12:20;4.63;;;4.22;;
7941;SDS011;4016;50.758;7.150;2023-09-07T16:17:20;4.97;;;4.57;;
7941;SDS011;4016;50.758;7.150;2023-09-07T16:22:20;5.20;;;4.70;;
7941;SDS011;4016;50.758;7.150;2023-09-07T16:27:21;5.40;;;4.90;;
7941;SDS011;4016;50.758;7.150;2023-09-07T16:32:21;5.13;;;4.63;;
7941;SDS011;4016;50.758;7.150;2023-09-07T16:37:21;5.30;;;4.40;;
7941;SDS011;4016;50.758;7.150;2023-09-07T16:42:26;6.07;;;4.45;;
7941;SDS011;4016;50.758;7.150;2023-09-07T16:47:26;4.90;;;4.50;;
7941;SDS011;4016;50.758;7.150;2023-09-07T16:52:27;5.15;;;4.13;;
7941;SDS011;4016;50.758;7.150;2023-09-07T16:57:32;5.30;;;4.80;;
7941;SDS011;4016;50.758;7.150;2023-09-07T17:02:34;4.93;;;4.43;;
7941;SDS011;4016;50.758;7.150;2023-09-07T17:07:34;5.22;;;4.72;;
7941;SDS011;4016;50.758;7.150;2023-09-07T17:12:35;5.32;;;4.80;;
7941;SDS011;4016;50.758;7.150;2023-09-07T17:17:35;4.80;;;4.33;;
7941;SDS011;4016;50.758;7.150;2023-09-07T17:22:36;5.38;;;4.82;;
7941;SDS011;4016;50.758;7.150;2023-09-07T17:27:36;5.88;;;4.97;;
7941;SDS011;4016;50.758;7.150;2023-09-07T17:32:37;5.20;;;4.40;;
7941;SDS011;4016;50.758;7.150;2023-09-07T17:37:38;5.28;;;4.78;;
7941;SDS011;4016;50.758;7.150;2023-09-07T17:42:39;5.25;;;4.85;;
7941;SDS011;4016;50.758;7.150;2023-09-07T17:47:40;7.18;;;4.80;;
7941;SDS011;4016;50.758;7.150;2023-09-07T17:52:41;5.35;;;4.80;;
7941;SDS011;4016;50.758;7.150;2023-09-07T17:57:41;5.40;;;4.90;;
7941;SDS011;4016;50.758;7.150;2023-09-07T18:02:42;5.28;;;4.78;;
7941;SDS011;4016;50.758;7.150;2023-09-07T18:07:42;6.80;;;4.63;;
7941;SDS011;4016;50.758;7.150;2023-09-07T18:12:43;5.30;;;4.63;;
7941;SDS011;4016;50.758;7.150;2023-09-07T18:17:43;6.10;;;5.15;;
7941;SDS011;4016;50.758;7.150;2023-09-07T18:22:43;5.05;;;4.53;;
7941;SDS011;4016;50.758;7.150;2023-09-07T18:27:44;5.10;;;4.57;;
7941;SDS011;4016;50.758;7.150;2023-09-07T18:32:44;5.38;;;4.55;;
7941;SDS011;4016;50.758;7.150;2023-09-07T18:37:44;6.10;;;5.00;;
7941;SDS011;4016;50.758;7.150;2023-09-07T18:42:45;5.47;;;4.97;;
7941;SDS011;4016;50.758;7.150;2023-09-07T18:47:45;5.68;;;5.10;;
7941;SDS011;4016;50.758;7.150;2023-09-07T18:52:46;5.47;;;4.97;;
7941;SDS011;4016;50.758;7.150;2023-09-07T18:57:48;6.70;;;5.13;;
7941;SDS011;4016;50.758;7.150;2023-09-07T19:02:48;5.82;;;5.32;;
7941;SDS011;4016;50.758;7.150;2023-09-07T19:07:49;5.50;;;4.93;;
7941;SDS011;4016;50.758;7.150;2023-09-07T19:12:49;5.65;;;4.88;;
7941;SDS011;4016;50.758;7.150;2023-09-07T19:17:51;5.85;;;5.03;;
7941;SDS011;4016;50.758;7.150;2023-09-07T19:22:51;6.45;;;5.25;;
7941;SDS011;4016;50.758;7.150;2023-09-07T19:27:52;6.13;;;5.53;;
7941;SDS011;4016;50.758;7.150;2023-09-07T19:32:52;5.70;;;5.20;;
7941;SDS011;4016;50.758;7.150;2023-09-07T19:37:52;6.25;;;5.65;;
7941;SDS011;4016;50.758;7.150;2023-09-07T19:42:53;5.95;;;5.35;;
7941;SDS011;4016;50.758;7.150;2023-09-07T19:47:54;6.90;;;5.20;;
7941;SDS011;4016;50.758;7.150;2023-09-07T19:52:54;6.00;;;5.45;;
7941;SDS011;4016;50.758;7.150;2023-09-07T19:57:54;6.05;;;5.45;;
7941;SDS011;4016;50.758;7.150;2023-09-07T20:02:55;6.95;;;6.18;;
7941;SDS011;4016;50.758;7.150;2023-09-07T20:07:56;6.80;;;6.20;;
7941;SDS011;4016;50.758;7.150;2023-09-07T20:12:57;8.90;;;7.35;;
7941;SDS011;4016;50.758;7.150;2023-09-07T20:17:58;7.30;;;6.60;;
7941;SDS011;4016;50.758;7.150;2023-09-07T20:22:58;7.55;;;6.82;;
7941;SDS011;4016;50.758;7.150;2023-09-07T20:27:59;9.35;;;6.22;;
7941;SDS011;4016;50.758;7.150;2023-09-07T20:33:00;6.70;;;6.10;;
7941;SDS011;4016;50.758;7.150;2023-09-07T20:38:01;6.88;;;6.10;;
7941;SDS011;4016;50.758;7.150;2023-09-07T20:43:03;6.55;;;5.95;;
7941;SDS011;4016;50.758;7.150;2023-09-07T20:48:06;6.68;;;6.07;;
7941;SDS011;4016;50.758;7.150;2023-09-07T20:53:07;7.55;;;5.45;;
7941;SDS011;4016;50.758;7.150;2023-09-07T20:58:08;6.60;;;6.00;;
7941;SDS011;4016;50.758;7.150;2023-09-07T21:03:08;5.97;;;5.38;;
7941;SDS011;4016;50.758;7.150;2023-09-07T21:08:09;6.60;;;6.00;;
7941;SDS011;4016;50.758;7.150;2023-09-07T21:13:09;6.68;;;5.75;;
7941;SDS011;4016;50.758;7.150;2023-09-07T21:18:10;6.22;;;5.65;;
7941;SDS011;4016;50.758;7.150;2023-09-07T21:23:10;6.18;;;5.57;;
7941;SDS011;4016;50.758;7.150;2023-09-07T21:28:11;6.13;;;5.63;;
7941;SDS011;4016;50.758;7.150;2023-09-07T21:33:12;5.80;;;5.28;;
7941;SDS011;4016;50.758;7.150;2023-09-07T21:38:12;6.07;;;5.47;;
7941;SDS011;4016;50.758;7.150;2023-09-07T21:43:13;5.63;;;5.10;;
7941;SDS011;4016;50.758;7.150;2023-09-07T21:48:13;6.40;;;5.80;;
7941;SDS011;4016;50.758;7.150;2023-09-07T21:53:14;6.70;;;5.30;;
7941;SDS011;4016;50.758;7.150;2023-09-07T21:58:14;6.05;;;5.45;;
7941;SDS011;4016;50.758;7.150;2023-09-07T22:03:15;6.78;;;5.43;;
7941;SDS011;4016;50.758;7.150;2023-09-07T22:08:15;6.10;;;5.38;;
7941;SDS011;4016;50.758;7.150;2023-09-07T22:13:16;6.85;;;6.13;;
7941;SDS011;4016;50.758;7.150;2023-09-07T22:18:16;6.50;;;5.88;;
7941;SDS011;4016;50.758;7.150;2023-09-07T22:23:16;6.30;;;5.70;;
7941;SDS011;4016;50.758;7.150;2023-09-07T22:28:17;6.30;;;5.70;;
7941;SDS011;4016;50.758;7.150;2023-09-07T22:33:17;6.13;;;5.50;;
7941;SDS011;4016;50.758;7.150;2023-09-07T22:38:18;5.85;;;5.35;;
7941;SDS011;4016;50.758;7.150;2023-09-07T22:43:18;6.60;;;5.45;;
7941;SDS011;4016;50.758;7.150;2023-09-07T22:48:19;5.80;;;5.30;;
7941;SDS011;4016;50.758;7.150;2023-09-07T22:53:19;6.50;;;5.90;;
7941;SDS011;4016;50.758;7.150;2023-09-07T22:58:21;5.70;;;5.20;;
7941;SDS011;4016;50.758;7.150;2023-09-07T23:03:22;6.07;;;5.47;;
7941;SDS011;4016;50.758;7.150;2023-09-07T23:08:22;6.32;;;5.72;;
7941;SDS011;4016;50.758;7.150;2023-09-07T23:13:23;7.22;;;5.78;;
7941;SDS011;4016;50.758;7.150;2023-09-07T23:18:23;7.40;;;5.28;;
7941;SDS011;4016;50.758;7.150;2023-09-07T23:23:24;6.35;;;5.47;;
7941;SDS011;4016;50.758;7.150;2023-09-07T23:28:27;6.05;;;5.45;;
7941;SDS011;4016;50.758;7.150;2023-09-07T23:33:27;5.97;;;5.47;;
7941;SDS011;4016;50.758;7.150;2023-09-07T23:38:28;6.10;;;5.45;;
7941;SDS011;4016;50.758;7.150;2023-09-07T23:43:29;6.25;;;5.35;;
7941;SDS011;4016;50.758;7.150;2023-09-07T23:48:29;6.32;;;5.75;;
7941;SDS011;4016;50.758;7.150;2023-09-07T23:53:30;6.53;;;5.93;;
7941;SDS011;4016;50.758;7.150;2023-09-07T23:58:30;5.78;;;5.13;;
